Time;durP1;ratioP1;P1;durP2;ratioP2;P2;SDS_P1;SDS_P2;PMS_P1;PMS_P2;Temp;Humidity;BMP_temperature;BMP_pressure;BME280_temperature;BME280_humidity;BME280_pressure;Samples;Min_cycle;Max_cycle;Signal;HPM_P1;HPM_P2
2022/04/19 00:00:04;;;;;;;33.72;23.27;;;;;;;;;;5000903;28;20090;-61
2022/04/19 00:02:32;;;;;;;33.25;23.48;;;;;;;;;;5000119;28;20029;-61
2022/04/19 00:04:59;;;;;;;33.00;24.63;;;;;;;;;;4998150;28;20425;-62
2022/04/19 00:07:27;;;;;;;33.10;23.77;;;;;;;;;;4997923;28;20091;-62
2022/04/19 00:09:52;;;;;;;33.97;24.25;;;;;;;;;;5001567;28;20049;-61
2022/04/19 00:12:18;;;;;;;34.42;25.27;;;;;;;;;;5011227;28;20051;-60
2022/04/19 00:14:43;;;;;;;34.33;24.63;;;;;;;;;;5000654;28;20035;-61
2022/04/19 00:17:08;;;;;;;34.53;24.20;;;;;;;;;;4999934;28;20037;-63
2022/04/19 00:19:34;;;;;;;34.05;25.10;;;;;;;;;;5000897;28;20109;-61
2022/04/19 00:22:03;;;;;;;34.67;25.17;;;;;;;;;;5002250;28;20271;-61
2022/04/19 00:24:29;;;;;;;37.72;26.65;;;;;;;;;;4998117;28;20365;-62
2022/04/19 00:26:55;;;;;;;34.72;25.73;;;;;;;;;;5000512;28;21922;-61
2022/04/19 00:29:21;;;;;;;35.40;26.08;;;;;;;;;;4998729;28;20037;-61
2022/04/19 00:31:48;;;;;;;35.85;25.65;;;;;;;;;;5001372;28;20033;-62
2022/04/19 00:34:15;;;;;;;35.53;27.15;;;;;;;;;;5000014;28;20156;-62
2022/04/19 00:36:42;;;;;;;36.05;27.25;;;;;;;;;;5015469;28;20029;-62
2022/04/19 00:39:08;;;;;;;38.40;27.58;;;;;;;;;;4997495;28;20029;-62
2022/04/19 00:41:33;;;;;;;36.42;27.52;;;;;;;;;;4998803;28;21858;-62
2022/04/19 00:43:58;;;;;;;38.95;28.23;;;;;;;;;;5000654;28;20021;-61
2022/04/19 00:46:24;;;;;;;38.72;28.23;;;;;;;;;;5014523;28;20330;-60
2022/04/19 00:48:52;;;;;;;41.58;27.80;;;;;;;;;;5000481;28;20381;-61
2022/04/19 00:51:20;;;;;;;38.25;27.60;;;;;;;;;;5015123;28;20540;-61
2022/04/19 00:53:47;;;;;;;36.15;27.52;;;;;;;;;;5000499;28;20374;-61
2022/04/19 00:56:13;;;;;;;38.75;28.33;;;;;;;;;;5008804;28;20056;-62
2022/04/19 00:58:41;;;;;;;41.10;28.13;;;;;;;;;;4999333;28;20452;-62
2022/04/19 01:01:06;;;;;;;37.75;27.13;;;;;;;;;;4999189;28;20064;-61
2022/04/19 01:03:32;;;;;;;40.22;27.73;;;;;;;;;;5000703;28;20486;-61
2022/04/19 01:05:59;;;;;;;38.83;28.50;;;;;;;;;;5001118;28;20029;-62
2022/04/19 01:08:24;;;;;;;38.22;28.20;;;;;;;;;;4997607;28;20040;-61
2022/04/19 01:10:50;;;;;;;41.05;28.60;;;;;;;;;;4998707;28;20033;-62
2022/04/19 01:13:35;;;;;;;39.97;29.50;;;;;;;;;;5000444;28;20182;-61
2022/04/19 01:16:00;;;;;;;39.20;28.63;;;;;;;;;;4999918;28;20029;-61
2022/04/19 01:18:29;;;;;;;38.17;28.67;;;;;;;;;;4999907;28;20366;-61
2022/04/19 01:20:58;;;;;;;41.37;29.20;;;;;;;;;;4999646;28;20025;-62
2022/04/19 01:23:24;;;;;;;40.97;29.23;;;;;;;;;;4998289;28;20056;-62
2022/04/19 01:25:50;;;;;;;40.28;29.13;;;;;;;;;;5014179;28;20025;-61
2022/04/19 01:28:18;;;;;;;41.28;29.67;;;;;;;;;;4999477;28;20037;-61
2022/04/19 01:30:44;;;;;;;45.30;31.60;;;;;;;;;;4997500;28;20021;-61
2022/04/19 01:33:11;;;;;;;47.90;32.33;;;;;;;;;;4981651;28;20041;-62
2022/04/19 01:35:36;;;;;;;44.95;32.25;;;;;;;;;;5000843;28;20702;-62
2022/04/19 01:38:02;;;;;;;48.30;32.78;;;;;;;;;;4997621;28;20409;-63
2022/04/19 01:40:29;;;;;;;46.25;31.48;;;;;;;;;;5000973;28;20456;-62
2022/04/19 01:42:58;;;;;;;45.00;33.13;;;;;;;;;;4996824;28;20474;-62
2022/04/19 01:45:28;;;;;;;47.05;34.20;;;;;;;;;;5014648;28;20079;-62
2022/04/19 01:47:59;;;;;;;44.55;32.72;;;;;;;;;;4999316;28;20131;-62
2022/04/19 01:50:28;;;;;;;49.40;34.47;;;;;;;;;;4999333;28;20029;-62
2022/04/19 01:52:57;;;;;;;49.28;34.92;;;;;;;;;;4997784;28;20052;-63
2022/04/19 01:55:23;;;;;;;48.10;34.17;;;;;;;;;;4998935;28;20357;-63
2022/04/19 01:57:56;;;;;;;49.38;35.35;;;;;;;;;;4997037;28;20216;-64
2022/04/19 02:00:29;;;;;;;47.90;35.47;;;;;;;;;;5013554;28;20266;-63
2022/04/19 02:03:01;;;;;;;49.00;36.15;;;;;;;;;;4999581;28;20331;-63
2022/04/19 02:05:28;;;;;;;47.55;35.47;;;;;;;;;;4998943;28;20025;-63
2022/04/19 02:07:56;;;;;;;50.42;35.80;;;;;;;;;;4999620;28;20067;-63
2022/04/19 02:10:21;;;;;;;49.88;36.75;;;;;;;;;;4996075;28;20279;-63
2022/04/19 02:12:47;;;;;;;49.05;35.92;;;;;;;;;;4996108;28;21005;-62
2022/04/19 02:15:16;;;;;;;49.10;36.30;;;;;;;;;;4999076;28;20044;-62
2022/04/19 02:17:45;;;;;;;47.70;36.17;;;;;;;;;;4999455;28;20259;-62
2022/04/19 02:20:11;;;;;;;50.20;37.42;;;;;;;;;;4999424;28;20025;-62
2022/04/19 02:22:39;;;;;;;52.05;36.88;;;;;;;;;;4999156;28;20111;-63
2022/04/19 02:25:05;;;;;;;53.45;39.88;;;;;;;;;;5012033;28;20077;-62
2022/04/19 02:27:31;;;;;;;54.17;39.92;;;;;;;;;;4999171;28;20028;-62
2022/04/19 02:29:56;;;;;;;54.65;39.72;;;;;;;;;;4999639;28;20112;-62
2022/04/19 02:32:24;;;;;;;49.92;38.15;;;;;;;;;;4997701;28;20041;-62
2022/04/19 02:34:52;;;;;;;51.53;37.85;;;;;;;;;;5012775;28;20029;-63
2022/04/19 02:37:18;;;;;;;57.17;39.75;;;;;;;;;;4999496;28;20357;-62
2022/04/19 02:39:46;;;;;;;54.78;40.25;;;;;;;;;;4999528;28;20123;-62
2022/04/19 02:42:14;;;;;;;55.65;38.72;;;;;;;;;;5001714;28;20135;-62
2022/04/19 02:44:39;;;;;;;54.78;39.53;;;;;;;;;;5017906;28;20398;-62
2022/04/19 02:47:05;;;;;;;53.85;39.58;;;;;;;;;;5012065;28;20140;-64
2022/04/19 02:49:30;;;;;;;51.72;39.10;;;;;;;;;;5001586;28;20308;-64
2022/04/19 02:51:56;;;;;;;53.33;40.63;;;;;;;;;;5002286;28;20029;-61
2022/04/19 02:54:21;;;;;;;58.33;41.30;;;;;;;;;;5002850;28;20664;-61
2022/04/19 02:56:47;;;;;;;56.83;43.25;;;;;;;;;;5000295;28;20043;-62
2022/04/19 02:59:13;;;;;;;59.30;43.00;;;;;;;;;;5008888;28;20068;-62
2022/04/19 03:01:40;;;;;;;60.20;43.55;;;;;;;;;;5002726;28;20111;-64
2022/04/19 03:04:08;;;;;;;61.78;43.53;;;;;;;;;;5015908;28;22272;-62
2022/04/19 03:06:33;;;;;;;60.33;43.80;;;;;;;;;;5002164;28;20056;-61
2022/04/19 03:09:01;;;;;;;60.40;44.47;;;;;;;;;;5002645;28;21318;-62
2022/04/19 03:11:27;;;;;;;59.45;43.75;;;;;;;;;;5003432;28;20037;-61
2022/04/19 03:13:53;;;;;;;62.85;43.75;;;;;;;;;;5000966;28;20413;-64
2022/04/19 03:16:18;;;;;;;62.33;43.58;;;;;;;;;;5003253;28;20044;-63
2022/04/19 03:18:44;;;;;;;66.78;47.00;;;;;;;;;;5002077;28;20322;-65
2022/04/19 03:21:10;;;;;;;64.07;44.53;;;;;;;;;;4992433;28;20114;-62
2022/04/19 03:29:04;;;;;;;70.47;47.72;;;;;;;;;;5002131;28;20047;-63
2022/04/19 03:31:32;;;;;;;68.88;47.58;;;;;;;;;;5017074;28;20025;-61
2022/04/19 03:34:00;;;;;;;68.72;48.00;;;;;;;;;;5001012;28;20481;-61
2022/04/19 03:36:25;;;;;;;65.97;46.20;;;;;;;;;;5001587;28;20405;-62
2022/04/19 03:38:53;;;;;;;66.63;45.78;;;;;;;;;;5015875;28;21890;-61
2022/04/19 03:41:18;;;;;;;66.38;44.67;;;;;;;;;;5010081;28;20051;-61
2022/04/19 03:43:44;;;;;;;64.30;45.47;;;;;;;;;;5001645;28;20044;-60
2022/04/19 03:46:09;;;;;;;64.43;46.05;;;;;;;;;;5001801;28;20041;-62
2022/04/19 03:48:35;;;;;;;63.63;45.17;;;;;;;;;;5010201;28;20040;-62
2022/04/19 03:51:03;;;;;;;62.80;45.85;;;;;;;;;;5001753;28;20033;-61
2022/04/19 03:53:29;;;;;;;64.68;47.63;;;;;;;;;;4999805;28;20168;-62
2022/04/19 03:55:54;;;;;;;62.95;47.58;;;;;;;;;;5000506;28;20187;-62
2022/04/19 03:58:19;;;;;;;62.53;45.42;;;;;;;;;;5002719;28;20515;-61
2022/04/19 04:00:46;;;;;;;60.78;45.03;;;;;;;;;;5001509;28;20052;-61
2022/04/19 04:03:14;;;;;;;63.72;45.63;;;;;;;;;;5015431;28;20526;-61
2022/04/19 04:05:40;;;;;;;57.03;42.88;;;;;;;;;;5002397;28;20029;-61
2022/04/19 04:08:05;;;;;;;58.35;42.47;;;;;;;;;;5010755;28;20136;-61
2022/04/19 04:10:30;;;;;;;54.10;39.78;;;;;;;;;;5001603;28;20094;-61
2022/04/19 04:13:00;;;;;;;55.25;41.13;;;;;;;;;;5000949;28;20079;-61
2022/04/19 04:15:25;;;;;;;54.88;40.85;;;;;;;;;;5003085;28;20026;-62
2022/04/19 04:17:51;;;;;;;53.15;40.80;;;;;;;;;;4999789;28;20437;-63
2022/04/19 04:20:16;;;;;;;53.40;40.45;;;;;;;;;;5000203;28;20464;-62
2022/04/19 04:22:42;;;;;;;57.72;41.65;;;;;;;;;;5001186;28;20071;-63
2022/04/19 04:25:10;;;;;;;56.08;42.40;;;;;;;;;;5001538;28;20142;-63
2022/04/19 04:27:36;;;;;;;58.83;41.85;;;;;;;;;;5000594;28;20296;-63
2022/04/19 04:30:01;;;;;;;63.88;44.47;;;;;;;;;;5016324;28;20194;-63
2022/04/19 04:32:31;;;;;;;59.78;43.20;;;;;;;;;;5001207;28;20063;-63
2022/04/19 04:34:59;;;;;;;65.10;44.78;;;;;;;;;;5000451;28;20294;-63
2022/04/19 04:37:27;;;;;;;58.60;42.63;;;;;;;;;;5009879;28;20982;-63
2022/04/19 04:39:52;;;;;;;59.00;43.25;;;;;;;;;;5001408;28;20039;-61
2022/04/19 04:42:18;;;;;;;62.38;44.10;;;;;;;;;;5000455;28;20373;-61
2022/04/19 04:44:44;;;;;;;56.22;42.50;;;;;;;;;;4990388;28;20033;-62
2022/04/19 04:50:01;;;;;;;60.33;42.50;;;;;;;;;;5000846;28;20029;-61
2022/04/19 04:52:27;;;;;;;59.95;44.50;;;;;;;;;;5000358;28;20044;-61
2022/04/19 04:54:52;;;;;;;62.50;43.30;;;;;;;;;;5007314;28;20033;-61
2022/04/19 04:57:19;;;;;;;59.78;43.65;;;;;;;;;;5001695;28;20183;-61
2022/04/19 04:59:45;;;;;;;59.58;43.28;;;;;;;;;;5001007;28;20033;-62
2022/04/19 05:02:10;;;;;;;63.33;44.35;;;;;;;;;;4998708;28;21773;-62
2022/04/19 05:04:38;;;;;;;62.80;43.92;;;;;;;;;;4998993;28;20021;-62
2022/04/19 05:07:04;;;;;;;64.30;43.70;;;;;;;;;;4998589;28;20817;-61
2022/04/19 05:09:29;;;;;;;58.63;40.85;;;;;;;;;;5000662;28;20541;-62
2022/04/19 05:11:57;;;;;;;58.45;40.63;;;;;;;;;;5000224;28;20096;-62
2022/04/19 05:14:23;;;;;;;56.35;40.70;;;;;;;;;;5000430;28;20158;-63
2022/04/19 05:16:49;;;;;;;56.53;40.10;;;;;;;;;;5000086;28;20102;-63
2022/04/19 05:19:14;;;;;;;57.00;40.72;;;;;;;;;;5000896;28;20103;-64
2022/04/19 05:21:40;;;;;;;54.20;39.60;;;;;;;;;;4999904;28;20059;-63
2022/04/19 05:24:06;;;;;;;55.97;39.95;;;;;;;;;;4999909;28;20104;-63
2022/04/19 05:26:34;;;;;;;51.38;38.70;;;;;;;;;;4998205;28;20281;-63
2022/04/19 05:29:03;;;;;;;52.65;39.45;;;;;;;;;;5000460;28;20304;-62
2022/04/19 05:31:28;;;;;;;51.70;38.95;;;;;;;;;;4999922;28;20093;-63
2022/04/19 05:33:56;;;;;;;52.10;37.88;;;;;;;;;;5000266;28;20033;-63
2022/04/19 05:36:23;;;;;;;46.10;34.30;;;;;;;;;;4994074;28;20913;-65
2022/04/19 05:38:52;;;;;;;48.22;33.55;;;;;;;;;;4998052;28;20431;-63
2022/04/19 05:41:21;;;;;;;45.40;32.70;;;;;;;;;;4998634;28;20661;-63
2022/04/19 05:43:47;;;;;;;43.78;30.15;;;;;;;;;;5014294;28;20079;-63
2022/04/19 05:46:12;;;;;;;39.20;29.88;;;;;;;;;;4999208;28;20079;-63
2022/04/19 05:48:38;;;;;;;38.60;29.67;;;;;;;;;;4998722;28;20058;-63
2022/04/19 05:51:06;;;;;;;37.65;28.67;;;;;;;;;;5000507;28;20493;-63
2022/04/19 05:53:31;;;;;;;37.40;28.42;;;;;;;;;;4996753;28;20804;-63
2022/04/19 05:55:57;;;;;;;35.63;27.02;;;;;;;;;;4999622;28;20261;-62
2022/04/19 05:58:22;;;;;;;33.45;24.23;;;;;;;;;;5008729;28;20528;-63
2022/04/19 06:00:48;;;;;;;32.83;23.77;;;;;;;;;;4997135;28;20291;-64
2022/04/19 06:05:58;;;;;;;31.08;22.27;;;;;;;;;;4999776;28;20037;-64
2022/04/19 06:08:25;;;;;;;25.92;19.38;;;;;;;;;;4998149;28;20263;-64
2022/04/19 06:10:51;;;;;;;27.83;20.30;;;;;;;;;;4996427;28;20296;-64
2022/04/19 06:13:16;;;;;;;28.00;19.55;;;;;;;;;;5011922;28;20209;-63
2022/04/19 06:15:42;;;;;;;26.77;19.75;;;;;;;;;;4997056;28;20033;-63
2022/04/19 06:18:07;;;;;;;29.40;19.13;;;;;;;;;;4996106;28;20297;-64
2022/04/19 06:20:34;;;;;;;29.83;18.90;;;;;;;;;;4996114;28;20037;-63
2022/04/19 06:22:59;;;;;;;24.70;17.33;;;;;;;;;;5013064;28;20744;-62
2022/04/19 06:25:25;;;;;;;23.30;17.15;;;;;;;;;;5011956;28;20136;-63
2022/04/19 06:27:55;;;;;;;26.52;17.50;;;;;;;;;;4999608;28;20037;-63
2022/04/19 06:30:24;;;;;;;24.17;17.25;;;;;;;;;;4995533;28;20564;-63
2022/04/19 06:32:50;;;;;;;24.90;16.48;;;;;;;;;;4998418;28;20047;-63
2022/04/19 06:35:17;;;;;;;25.25;16.98;;;;;;;;;;5000301;28;20029;-62
2022/04/19 06:37:47;;;;;;;20.30;16.02;;;;;;;;;;5000240;28;20111;-62
2022/04/19 06:40:12;;;;;;;22.15;15.05;;;;;;;;;;4996267;28;20681;-63
2022/04/19 06:42:37;;;;;;;21.38;15.32;;;;;;;;;;4999342;28;20032;-64
2022/04/19 06:45:04;;;;;;;20.00;13.93;;;;;;;;;;4999211;28;20130;-65
2022/04/19 06:47:31;;;;;;;15.55;12.80;;;;;;;;;;4998816;28;20021;-64
2022/04/19 06:49:57;;;;;;;18.42;12.73;;;;;;;;;;5000049;28;20704;-63
2022/04/19 06:52:23;;;;;;;18.45;12.68;;;;;;;;;;4999697;28;20029;-63
2022/04/19 06:54:50;;;;;;;18.90;12.38;;;;;;;;;;4997631;28;20021;-63
2022/04/19 06:57:16;;;;;;;19.33;13.43;;;;;;;;;;5000682;28;20713;-63
2022/04/19 06:59:41;;;;;;;16.38;11.57;;;;;;;;;;4998177;28;20420;-65
2022/04/19 07:02:06;;;;;;;15.52;12.23;;;;;;;;;;4997990;28;20669;-65
2022/04/19 07:04:37;;;;;;;16.33;11.43;;;;;;;;;;4998315;28;20114;-65
2022/04/19 07:07:03;;;;;;;16.73;11.40;;;;;;;;;;4999228;28;20032;-64
2022/04/19 07:09:29;;;;;;;19.10;11.50;;;;;;;;;;5013635;28;20401;-64
2022/04/19 07:11:55;;;;;;;16.08;11.27;;;;;;;;;;4998545;28;20036;-64
2022/04/19 07:14:20;;;;;;;16.30;11.23;;;;;;;;;;4998827;28;20604;-64
2022/04/19 07:16:46;;;;;;;15.57;11.25;;;;;;;;;;5006989;28;20226;-65
2022/04/19 07:19:13;;;;;;;13.45;10.48;;;;;;;;;;4998392;28;20126;-64
2022/04/19 07:27:06;;;;;;;16.08;11.23;;;;;;;;;;4999225;28;20033;-64
2022/04/19 07:29:32;;;;;;;15.40;11.07;;;;;;;;;;4982887;28;20168;-65
2022/04/19 07:31:57;;;;;;;15.05;9.75;;;;;;;;;;5001351;28;20456;-67
2022/04/19 07:34:24;;;;;;;15.98;10.07;;;;;;;;;;5001330;28;20184;-66
2022/04/19 07:36:50;;;;;;;16.85;10.05;;;;;;;;;;5001518;28;20100;-64
2022/04/19 07:39:15;;;;;;;14.50;10.20;;;;;;;;;;5001163;28;20552;-64
2022/04/19 07:41:45;;;;;;;12.93;9.60;;;;;;;;;;5001200;28;20322;-64
2022/04/19 07:44:10;;;;;;;11.00;8.80;;;;;;;;;;5000984;28;20116;-63
2022/04/19 07:46:36;;;;;;;14.23;9.82;;;;;;;;;;4999670;28;20017;-65
2022/04/19 07:49:02;;;;;;;13.50;9.30;;;;;;;;;;5000772;28;20170;-65
2022/04/19 07:51:28;;;;;;;13.63;9.45;;;;;;;;;;5001443;28;20134;-65
2022/04/19 07:53:53;;;;;;;12.63;9.02;;;;;;;;;;4999802;28;20459;-65
2022/04/19 07:56:22;;;;;;;11.95;8.50;;;;;;;;;;4999864;28;20199;-66
2022/04/19 07:58:47;;;;;;;11.70;8.68;;;;;;;;;;4999993;28;20452;-66
2022/04/19 08:01:16;;;;;;;12.02;7.97;;;;;;;;;;5000427;28;20046;-64
2022/04/19 08:03:42;;;;;;;13.57;8.70;;;;;;;;;;5001050;28;20187;-64
2022/04/19 08:06:07;;;;;;;14.35;8.68;;;;;;;;;;4999526;28;22129;-65
2022/04/19 08:08:32;;;;;;;10.20;7.38;;;;;;;;;;5000827;28;20020;-64
2022/04/19 08:10:57;;;;;;;12.95;7.80;;;;;;;;;;5015690;28;20025;-65
2022/04/19 08:13:24;;;;;;;11.13;7.45;;;;;;;;;;4999351;28;20140;-65
2022/04/19 08:15:51;;;;;;;12.00;8.07;;;;;;;;;;5000273;28;20505;-65
2022/04/19 08:18:18;;;;;;;13.32;7.28;;;;;;;;;;5001232;28;20036;-65
2022/04/19 08:20:44;;;;;;;12.05;7.65;;;;;;;;;;4997657;28;20152;-64
2022/04/19 08:23:10;;;;;;;12.57;8.20;;;;;;;;;;5014791;28;20315;-65
2022/04/19 08:25:36;;;;;;;11.98;8.25;;;;;;;;;;5000183;28;20183;-65
2022/04/19 08:28:02;;;;;;;10.75;6.78;;;;;;;;;;4999693;28;20595;-65
2022/04/19 08:30:27;;;;;;;14.02;7.30;;;;;;;;;;4998592;28;20400;-64
2022/04/19 08:32:53;;;;;;;11.45;7.40;;;;;;;;;;5015036;28;20029;-64
2022/04/19 08:35:18;;;;;;;11.55;6.97;;;;;;;;;;5000482;28;20045;-64
2022/04/19 08:37:43;;;;;;;13.25;7.38;;;;;;;;;;5000488;28;20410;-65
2022/04/19 08:40:10;;;;;;;13.65;7.35;;;;;;;;;;5015379;28;20032;-64
2022/04/19 08:42:38;;;;;;;10.30;7.22;;;;;;;;;;5000118;28;20312;-64
2022/04/19 08:45:04;;;;;;;11.93;6.65;;;;;;;;;;4994852;28;21113;-65
2022/04/19 08:47:36;;;;;;;14.15;7.55;;;;;;;;;;4998381;28;20021;-64
2022/04/19 08:50:02;;;;;;;11.13;7.28;;;;;;;;;;5000327;28;20052;-64
2022/04/19 08:52:28;;;;;;;14.45;8.15;;;;;;;;;;4997162;28;20035;-64
2022/04/19 08:57:37;;;;;;;11.73;7.00;;;;;;;;;;4998294;28;20450;-64
2022/04/19 09:00:06;;;;;;;10.88;6.90;;;;;;;;;;4999977;28;20324;-66
2022/04/19 09:02:32;;;;;;;10.38;7.55;;;;;;;;;;5000312;28;20441;-66
2022/04/19 09:05:11;;;;;;;11.00;7.07;;;;;;;;;;4997465;28;20070;-65
2022/04/19 09:07:37;;;;;;;12.95;7.55;;;;;;;;;;5000293;28;20155;-64
2022/04/19 09:10:11;;;;;;;13.65;7.65;;;;;;;;;;5012871;28;20059;-65
2022/04/19 09:12:37;;;;;;;10.07;6.90;;;;;;;;;;4998524;28;20060;-66
2022/04/19 09:15:06;;;;;;;11.27;6.20;;;;;;;;;;4999760;28;20029;-66
2022/04/19 09:17:34;;;;;;;9.77;6.25;;;;;;;;;;5002266;28;20269;-66
2022/04/19 09:20:18;;;;;;;9.73;6.82;;;;;;;;;;5000207;28;20041;-66
2022/04/19 09:22:44;;;;;;;10.38;6.55;;;;;;;;;;4997419;28;20398;-66
2022/04/19 09:25:29;;;;;;;10.32;6.95;;;;;;;;;;4998903;28;20157;-65
2022/04/19 09:27:55;;;;;;;10.43;6.60;;;;;;;;;;5013293;28;20325;-65
2022/04/19 09:30:28;;;;;;;11.05;6.10;;;;;;;;;;5014442;28;20674;-66
2022/04/19 09:33:09;;;;;;;10.73;7.68;;;;;;;;;;4999276;28;20070;-66
2022/04/19 09:35:40;;;;;;;10.13;6.95;;;;;;;;;;4997609;28;20034;-66
2022/04/19 09:38:07;;;;;;;12.57;6.65;;;;;;;;;;4996254;28;20049;-66
2022/04/19 09:40:50;;;;;;;9.43;6.47;;;;;;;;;;4997360;28;20460;-64
2022/04/19 09:43:22;;;;;;;11.40;6.55;;;;;;;;;;4994282;28;20036;-65
2022/04/19 09:45:56;;;;;;;9.55;6.70;;;;;;;;;;4998164;28;20017;-64
2022/04/19 09:48:23;;;;;;;13.52;7.22;;;;;;;;;;4999843;28;20399;-67
2022/04/19 09:50:50;;;;;;;8.50;6.30;;;;;;;;;;4995886;28;20127;-64
2022/04/19 09:53:19;;;;;;;10.00;6.70;;;;;;;;;;4996927;28;20024;-65
2022/04/19 09:55:48;;;;;;;9.20;6.68;;;;;;;;;;4996397;28;20596;-65
2022/04/19 09:58:14;;;;;;;10.48;7.20;;;;;;;;;;4997628;28;20583;-64
2022/04/19 10:00:39;;;;;;;10.32;7.10;;;;;;;;;;4996768;28;20150;-65
2022/04/19 10:08:53;;;;;;;9.82;6.13;;;;;;;;;;4974581;28;20033;-64
2022/04/19 10:11:19;;;;;;;9.90;6.75;;;;;;;;;;4992979;28;21729;-64
2022/04/19 10:13:45;;;;;;;10.48;6.43;;;;;;;;;;5000407;28;20017;-64
2022/04/19 10:16:14;;;;;;;9.00;6.65;;;;;;;;;;5015773;28;20015;-64
2022/04/19 10:18:44;;;;;;;11.23;7.07;;;;;;;;;;5000096;28;20129;-65
2022/04/19 10:21:15;;;;;;;10.32;7.20;;;;;;;;;;4998470;28;20240;-65
2022/04/19 10:23:41;;;;;;;11.15;6.88;;;;;;;;;;5000733;28;20083;-65
2022/04/19 10:26:16;;;;;;;12.52;7.32;;;;;;;;;;5001216;28;20052;-65
2022/04/19 10:28:42;;;;;;;10.90;6.88;;;;;;;;;;5001177;28;20674;-65
2022/04/19 10:31:08;;;;;;;10.98;7.10;;;;;;;;;;4998195;28;20036;-66
2022/04/19 10:33:40;;;;;;;11.38;7.80;;;;;;;;;;5000739;28;20044;-63
2022/04/19 10:36:11;;;;;;;12.00;7.57;;;;;;;;;;4999289;28;20099;-62
2022/04/19 10:38:36;;;;;;;12.20;8.45;;;;;;;;;;4999760;28;20071;-63
2022/04/19 10:41:03;;;;;;;14.43;8.18;;;;;;;;;;4999333;28;20037;-62
2022/04/19 10:43:28;;;;;;;11.65;8.18;;;;;;;;;;5000206;28;20224;-62
2022/04/19 10:45:54;;;;;;;11.90;8.30;;;;;;;;;;5002309;28;20818;-63
2022/04/19 10:48:20;;;;;;;12.95;7.75;;;;;;;;;;5002843;28;20048;-63
2022/04/19 10:50:50;;;;;;;10.90;7.70;;;;;;;;;;5002914;28;20025;-63
2022/04/19 10:53:30;;;;;;;11.10;8.25;;;;;;;;;;5002969;28;20032;-68
2022/04/19 10:56:02;;;;;;;11.38;7.35;;;;;;;;;;4999840;28;20196;-66
2022/04/19 10:58:38;;;;;;;10.38;7.72;;;;;;;;;;5000785;28;21070;-66
2022/04/19 11:01:05;;;;;;;11.10;7.40;;;;;;;;;;5003575;28;20021;-63
2022/04/19 11:03:34;;;;;;;11.55;8.07;;;;;;;;;;5005462;28;20025;-63
2022/04/19 11:06:02;;;;;;;13.23;7.72;;;;;;;;;;5006775;28;20465;-68
2022/04/19 11:08:30;;;;;;;13.18;7.72;;;;;;;;;;5020230;28;20511;-64
2022/04/19 11:10:55;;;;;;;12.32;7.82;;;;;;;;;;5006349;28;20056;-62
2022/04/19 11:13:28;;;;;;;11.73;7.90;;;;;;;;;;5005487;28;20032;-62
2022/04/19 11:15:57;;;;;;;11.40;8.02;;;;;;;;;;5005942;28;20092;-63
2022/04/19 11:18:26;;;;;;;10.63;6.28;;;;;;;;;;5005066;28;20025;-63
2022/04/19 11:20:57;;;;;;;10.63;7.32;;;;;;;;;;5003669;28;20033;-63
2022/04/19 11:23:26;;;;;;;8.93;6.38;;;;;;;;;;5003734;28;20061;-63
2022/04/19 11:25:52;;;;;;;10.13;7.40;;;;;;;;;;5019168;28;20044;-64
2022/04/19 11:28:19;;;;;;;9.98;7.13;;;;;;;;;;5003987;28;20032;-65
2022/04/19 11:30:50;;;;;;;8.75;6.43;;;;;;;;;;5020252;28;20036;-64
2022/04/19 11:33:25;;;;;;;10.38;7.38;;;;;;;;;;5002362;28;20830;-63
2022/04/19 11:36:09;;;;;;;11.48;7.75;;;;;;;;;;5004470;28;20036;-67
2022/04/19 11:38:42;;;;;;;10.77;7.07;;;;;;;;;;5004734;28;20810;-65
2022/04/19 11:46:45;;;;;;;12.13;7.72;;;;;;;;;;5003507;28;20029;-64
2022/04/19 11:49:28;;;;;;;9.68;6.80;;;;;;;;;;5005394;28;20021;-64
2022/04/19 11:51:57;;;;;;;10.55;7.60;;;;;;;;;;5005117;28;20140;-64
2022/04/19 11:54:23;;;;;;;12.57;7.80;;;;;;;;;;5003895;28;20021;-63
2022/04/19 11:56:52;;;;;;;9.23;6.88;;;;;;;;;;5003251;28;21159;-67
2022/04/19 11:59:17;;;;;;;11.95;7.53;;;;;;;;;;5005609;28;20056;-63
2022/04/19 12:01:49;;;;;;;11.90;7.93;;;;;;;;;;5006537;28;20071;-63
2022/04/19 12:04:15;;;;;;;11.73;8.23;;;;;;;;;;5005521;28;20033;-63
2022/04/19 12:06:44;;;;;;;10.80;7.22;;;;;;;;;;5002929;28;21200;-63
2022/04/19 12:09:14;;;;;;;15.18;8.45;;;;;;;;;;5005778;28;20032;-64
2022/04/19 12:11:40;;;;;;;11.80;6.90;;;;;;;;;;5005261;28;20306;-64
2022/04/19 12:14:07;;;;;;;12.77;8.18;;;;;;;;;;5002135;28;20033;-64
2022/04/19 12:16:34;;;;;;;13.40;7.70;;;;;;;;;;5005122;28;20044;-64
2022/04/19 12:19:09;;;;;;;9.57;6.63;;;;;;;;;;5005533;28;20025;-64
2022/04/19 12:21:38;;;;;;;9.57;6.97;;;;;;;;;;5004999;28;20647;-64
2022/04/19 12:24:16;;;;;;;8.55;5.88;;;;;;;;;;5002814;28;20035;-67
2022/04/19 12:26:42;;;;;;;9.05;5.68;;;;;;;;;;5004021;28;20040;-65
2022/04/19 12:29:09;;;;;;;9.20;5.00;;;;;;;;;;5004953;28;20033;-66
2022/04/19 12:31:36;;;;;;;8.52;5.60;;;;;;;;;;5003945;28;20040;-65
2022/04/19 12:34:04;;;;;;;9.40;6.15;;;;;;;;;;5013393;28;20028;-63
2022/04/19 12:36:45;;;;;;;9.45;6.18;;;;;;;;;;5005090;28;20029;-65
2022/04/19 12:39:14;;;;;;;8.82;6.03;;;;;;;;;;5005103;28;20045;-65
2022/04/19 12:41:42;;;;;;;9.30;6.15;;;;;;;;;;5004511;28;20037;-65
2022/04/19 12:44:10;;;;;;;8.90;5.93;;;;;;;;;;5004481;28;20041;-67
2022/04/19 12:46:42;;;;;;;8.93;6.00;;;;;;;;;;5004586;28;20858;-67
2022/04/19 12:49:07;;;;;;;;;;;;;;;;;;5019501;28;20013;-65
2022/04/19 12:51:35;;;;;;;9.23;6.20;;;;;;;;;;5005345;28;22229;-64
2022/04/19 12:54:05;;;;;;;9.55;6.55;;;;;;;;;;5004700;28;20370;-64
2022/04/19 12:56:33;;;;;;;10.07;6.47;;;;;;;;;;5004356;28;20318;-63
2022/04/19 12:58:59;;;;;;;9.68;6.30;;;;;;;;;;5003918;28;20475;-64
2022/04/19 13:01:24;;;;;;;9.90;6.22;;;;;;;;;;5003502;28;20029;-63
2022/04/19 13:03:49;;;;;;;9.40;6.50;;;;;;;;;;5004469;28;20606;-64
2022/04/19 13:14:26;;;;;;;9.65;6.00;;;;;;;;;;5002752;28;20114;-62
2022/04/19 13:16:52;;;;;;;10.48;6.63;;;;;;;;;;5001795;28;20040;-63
2022/04/19 13:19:18;;;;;;;15.00;7.70;;;;;;;;;;5000515;28;20037;-63
2022/04/19 13:21:43;;;;;;;13.13;8.00;;;;;;;;;;4997931;28;20174;-62
2022/04/19 13:24:08;;;;;;;13.52;7.72;;;;;;;;;;4998365;28;20535;-62
2022/04/19 13:26:35;;;;;;;10.93;7.45;;;;;;;;;;5013997;28;20079;-63
2022/04/19 13:29:02;;;;;;;12.15;7.90;;;;;;;;;;5014237;28;20324;-62
2022/04/19 13:31:27;;;;;;;11.52;6.97;;;;;;;;;;4998659;28;20064;-64
2022/04/19 13:33:53;;;;;;;13.90;6.70;;;;;;;;;;4995893;28;20253;-64
2022/04/19 13:36:18;;;;;;;9.57;6.47;;;;;;;;;;4997503;28;20179;-63
2022/04/19 13:38:45;;;;;;;8.82;5.97;;;;;;;;;;4997516;28;20110;-63
2022/04/19 13:41:11;;;;;;;7.88;5.50;;;;;;;;;;5000438;28;20053;-63
2022/04/19 13:43:39;;;;;;;7.80;4.93;;;;;;;;;;4999908;28;20186;-63
2022/04/19 13:46:05;;;;;;;8.35;5.35;;;;;;;;;;4999871;28;20097;-62
2022/04/19 13:48:30;;;;;;;9.88;6.28;;;;;;;;;;4998998;28;20480;-62
2022/04/19 13:50:57;;;;;;;12.05;7.65;;;;;;;;;;5000027;28;20034;-63
2022/04/19 13:53:25;;;;;;;14.00;8.00;;;;;;;;;;5014572;28;20432;-63
2022/04/19 13:55:51;;;;;;;12.20;8.13;;;;;;;;;;5000017;28;20426;-63
2022/04/19 13:58:17;;;;;;;13.45;8.23;;;;;;;;;;5014439;28;20056;-64
2022/04/19 14:00:42;;;;;;;11.85;7.63;;;;;;;;;;5014755;28;20047;-64
2022/04/19 14:03:10;;;;;;;12.35;8.70;;;;;;;;;;5001318;28;20052;-63
2022/04/19 14:05:35;;;;;;;15.02;10.05;;;;;;;;;;5002652;28;20760;-68
2022/04/19 14:08:01;;;;;;;14.10;8.90;;;;;;;;;;5007340;28;20028;-65
2022/04/19 14:10:26;;;;;;;14.15;8.93;;;;;;;;;;5018974;28;20026;-65
2022/04/19 14:12:52;;;;;;;14.48;8.65;;;;;;;;;;5004088;28;20040;-65
2022/04/19 14:15:17;;;;;;;13.35;9.30;;;;;;;;;;5001671;28;20037;-64
2022/04/19 14:17:44;;;;;;;11.75;7.97;;;;;;;;;;5001344;28;20051;-65
2022/04/19 14:20:09;;;;;;;14.40;7.45;;;;;;;;;;4997287;28;20373;-66
2022/04/19 14:22:37;;;;;;;11.52;7.78;;;;;;;;;;5010399;28;20021;-65
2022/04/19 14:25:03;;;;;;;12.93;7.57;;;;;;;;;;5002116;28;20079;-66
2022/04/19 14:27:31;;;;;;;10.85;7.25;;;;;;;;;;4997798;28;20127;-66
2022/04/19 14:35:24;;;;;;;9.02;5.97;;;;;;;;;;5000188;28;20135;-66
2022/04/19 14:37:49;;;;;;;9.98;6.35;;;;;;;;;;5000196;28;20021;-66
2022/04/19 14:40:15;;;;;;;10.20;5.90;;;;;;;;;;4999165;28;20040;-66
2022/04/19 14:42:40;;;;;;;9.30;5.15;;;;;;;;;;4996399;28;20029;-66
2022/04/19 14:45:06;;;;;;;7.75;4.65;;;;;;;;;;4998673;28;20064;-65
2022/04/19 14:47:31;;;;;;;8.70;4.95;;;;;;;;;;4993981;28;20154;-64
2022/04/19 14:49:57;;;;;;;6.95;4.78;;;;;;;;;;4997235;28;20205;-66
2022/04/19 14:52:22;;;;;;;6.72;5.05;;;;;;;;;;4996259;28;20132;-61
2022/04/19 14:54:51;;;;;;;9.00;5.32;;;;;;;;;;4998551;28;20079;-63
2022/04/19 14:57:17;;;;;;;7.10;5.15;;;;;;;;;;4995684;28;20028;-62
2022/04/19 14:59:43;;;;;;;8.55;5.20;;;;;;;;;;4997859;28;21147;-62
2022/04/19 15:02:11;;;;;;;6.07;4.53;;;;;;;;;;4998138;28;20942;-66
2022/04/19 15:04:39;;;;;;;7.60;4.35;;;;;;;;;;4995023;28;20027;-66
2022/04/19 15:07:05;;;;;;;6.60;4.30;;;;;;;;;;4994088;28;20634;-66
2022/04/19 15:09:30;;;;;;;7.25;4.40;;;;;;;;;;4995794;28;20025;-65